Wetterdaten: aktuell Freitag, 18.10.2019 04:55
Datum Zeit Temperatur Luftfeuchte Luftdruck Regen Windgeschw. Windrichtung Windrichtung Taupunkt
18.10.2019 04:55 4,2 C 66 % 1013 hPa 0,0 l/m 0,0 km/h N 355 -1,6 C
18.10.2019 03:56 4,0 C 68 % 1013 hPa 0,0 l/m 0,0 km/h N 355 -1,4 C
18.10.2019 02:56 4,3 C 67 % 1013 hPa 0,0 l/m 0,0 km/h N 355 -1,3 C
18.10.2019 01:57 4,8 C 66 % 1013 hPa 0,0 l/m 0,0 km/h N 360 -1,0 C
18.10.2019 00:57 5,5 C 65 % 1013 hPa 0,0 l/m 0,0 km/h N 355 -0,5 C
17.10.2019 23:56 6,0 C 64 % 1013 hPa 0,0 l/m 0,0 km/h N 355 -0,3 C
17.10.2019 22:56 6,5 C 63 % 1013 hPa 0,0 l/m 0,0 km/h N 360 -0,0 C
17.10.2019 21:56 7,0 C 60 % 1013 hPa 0,0 l/m 0,0 km/h N 355 -0,2 C
17.10.2019 20:56 7,8 C 58 % 1013 hPa 0,0 l/m 0,0 km/h N 355 0,1 C
17.10.2019 19:56 8,9 C 55 % 1014 hPa 0,0 l/m 0,0 km/h N 360 0,4 C
17.10.2019 18:56 10,4 C 52 % 1014 hPa 0,0 l/m 0,0 km/h N 355 1,0 C
17.10.2019 17:56 12,9 C 44 % 1013 hPa 0,0 l/m 0,0 km/h N 5 1,0 C
17.10.2019 16:56 15,1 C 33 % 1014 hPa 0,0 l/m 0,0 km/h N45 360 -1,0 C
17.10.2019 15:56 16,9 C 30 % 1014 hPa 0,0 l/m 0,0 km/h NO22.5 50 -0,8 C
17.10.2019 14:56 17,2 C 30 % 1014 hPa 0,0 l/m 0,0 km/h NO22.5 50 -0,5 C
17.10.2019 13:56 16,5 C 30 % 1014 hPa 0,0 l/m 0,6 km/h NO22.5 45 -1,1 C
17.10.2019 12:56 15,8 C 31 % 1014 hPa 0,0 l/m 0,2 km/h O-NO 65 -1,3 C
17.10.2019 11:56 16,1 C 34 % 1014 hPa 0,0 l/m 0,2 km/h NO 55 0,2 C
17.10.2019 10:56 16,1 C 40 % 1015 hPa 0,0 l/m 0,0 km/h NW 305 2,5 C
17.10.2019 09:56 12,6 C 50 % 1014 hPa 0,0 l/m 0,0 km/h W-NW 300 2,5 C
17.10.2019 08:56 8,3 C 57 % 1014 hPa 0,0 l/m 0,0 km/h W-NW 300 0,3 C
17.10.2019 07:55 4,2 C 57 % 1014 hPa 0,0 l/m 0,0 km/h W-NW 300 -3,5 C
17.10.2019 06:55 3,8 C 57 % 1014 hPa 0,0 l/m 0,0 km/h W-NW 300 -3,9 C
17.10.2019 05:55 3,8 C 58 % 1014 hPa 0,0 l/m 0,0 km/h W-NW 300 -3,7 C
17.10.2019 05:00 3,8 C 57 % 1014 hPa 0,0 l/m 0,0 km/h W-NW 300 -3,9 C
_ Min-Zeit 07:00 11:21 04:20 - 05:00 - - 06:45
Minimum _ 3,7 C 30 % 1012 hPa - 0,0 km/h - - -4,2 C
_ Max-Zeit 15:06 03:36 09:26 05:00 13:51 - - 10:51
Maximum _ 17,3 C 69 % 1015 hPa 0,0 l/m 1,3 km/h
NO
- - 3,3 C
Durchschnitt _ 9,5 C 51 % 1014 hPa #0,0 l/m 0,0 km/h NO - -0,7 C